• Join FlightAware (Why Join?)
  • Login
  • US Flag 
12:01AM EDT


 

Airport Tracker/Info


-or-


 

Live Flight TrackerFlight Track Log ✈ UAL5848 ✈ 07-May-2013 ✈ KMLI - KORD

Flight Track Log - Related Links

Times and Time Zones

All times are in EDT time to prevent confusion due to time zone crossing. See the UAL5848 flight status page for this flight to view local times or setup timezone preferences in your user account.

Time Position Orientation Groundspeed Altitude Reporting Facility
EDT Latitude Longitude Course Direction KTS MPH feet Rate Location/Type
12:35PM 41.3978 -90.5669 90° East 201 231 4,000  Level Chicago Center
12:36PM 41.4014 -90.4747 87° East 241 277 6,200 2,220 Climbing Chicago Center
12:37PM 41.4333 -90.2747 90° East  Level FlightAware Approximate
12:38PM 41.4333 -90.1996 90° East  Level FlightAware Approximate
12:38PM 41.4044 -90.3750 88° East 262 302 8,700  Level Chicago Center
12:39PM 41.4333 -90.1245 90° East  Level FlightAware Approximate
12:39PM 41.4078 -90.2686 88° East 285 328 10,300  Level Chicago Center
12:40PM 41.4333 -90.0135 90° East  Level FlightAware Approximate
12:40PM 41.4111 -90.1461 88° East 325 374 11,100  Level Chicago Center
12:41PM 41.4334 -89.9025 90° East  Level FlightAware Approximate
12:41PM 41.4183 -89.9822 87° East 363 418 12,200  Level Chicago Center
12:42PM 41.4231 -89.8392 87° East 378 435 13,200 960 Climbing Chicago Center
12:43PM 41.4272 -89.6944 88° East 387 445 14,200 840 Climbing Chicago Center
12:44PM 41.4328 -89.5572 87° East 378 435 15,000 360 Climbing Chicago Center
12:45PM 41.4450 -89.4267 83° East 357 411 15,000  Level Chicago Center
12:46PM 41.4567 -89.3014 83° East 352 405 15,000  Level Chicago Center
12:47PM 41.4681 -89.1839 83° East 335 386 15,000 -600 Level Chicago Center
12:48PM 41.4794 -89.0481 84° East 314 361 13,800 -1,200 Descending Chicago Center
12:49PM 41.4911 -88.9342 82° East 312 359 12,600 -1,200 Descending Chicago Center
12:50PM 41.5017 -88.8219 83° East 307 353 11,400 -780 Descending Chicago Center
12:51PM 41.5117 -88.7156 83° East 293 337 11,000 -240 Descending Chicago Center
12:52PM 41.5464 -88.6181 65° Northeast 293 337 11,000  Level Chicago Center
12:53PM 41.5919 -88.5047 62° Northeast 290 334 11,000 -540 Level Chicago Center
12:54PM 41.6189 -88.4056 70° East 282 325 10,000 -1,020 Descending Chicago Center
12:55PM 41.6458 -88.3108 69° East 272 313 9,000 -1,140 Descending Chicago Center
12:56PM 41.6750 -88.2211 66° East 260 299 7,700 -1,200 Descending Chicago Center
12:57PM 41.7267 -88.1700 36° Northeast 227 261 6,600 -1,080 Descending Chicago Center
12:58PM 41.7656 -88.1208 43° Northeast 203 234 5,500 -1,020 Descending Chicago Center
12:59PM 41.8025 -88.0761 42° Northeast 189 217 4,600 -1,020 Descending Chicago Center
01:00PM 41.8481 -88.0256 40° Northeast 182 209 3,400 -1,020 Descending Chicago Center
01:01PM 41.8800 -87.9850 43° Northeast 171 197 2,500 -900 Descending Chicago Center